sensor_id;sensor_type;location;lat;lon;timestamp;pressure;altitude;pressure_sealevel;temperature;humidity
56944;BME280;42848;42.524;12.052;2023-01-05T00:01:38;97747.19;;;8.75;100.00
56944;BME280;42848;42.524;12.052;2023-01-05T00:04:04;97750.75;;;8.71;100.00
56944;BME280;42848;42.524;12.052;2023-01-05T00:06:31;97745.66;;;8.64;100.00
56944;BME280;42848;42.524;12.052;2023-01-05T00:09:00;97743.09;;;8.44;100.00
56944;BME280;42848;42.524;12.052;2023-01-05T00:11:26;97743.16;;;8.73;100.00
56944;BME280;42848;42.524;12.052;2023-01-05T00:14:18;97737.97;;;8.76;100.00
56944;BME280;42848;42.524;12.052;2023-01-05T00:17:03;97735.56;;;8.75;100.00
56944;BME280;42848;42.524;12.052;2023-01-05T00:19:48;97726.72;;;8.64;100.00
56944;BME280;42848;42.524;12.052;2023-01-05T00:22:33;97719.59;;;8.73;100.00
56944;BME280;42848;42.524;12.052;2023-01-05T00:25:19;97726.75;;;8.59;100.00
56944;BME280;42848;42.524;12.052;2023-01-05T00:27:47;97733.53;;;8.57;100.00
56944;BME280;42848;42.524;12.052;2023-01-05T00:30:17;97727.69;;;8.44;100.00
56944;BME280;42848;42.524;12.052;2023-01-05T00:32:43;97727.22;;;8.66;100.00
56944;BME280;42848;42.524;12.052;2023-01-05T00:35:10;97739.13;;;8.70;100.00
56944;BME280;42848;42.524;12.052;2023-01-05T00:37:36;97737.16;;;8.76;100.00
56944;BME280;42848;42.524;12.052;2023-01-05T00:40:10;97738.34;;;8.65;100.00
56944;BME280;42848;42.524;12.052;2023-01-05T00:42:36;97733.75;;;8.65;100.00
56944;BME280;42848;42.524;12.052;2023-01-05T00:45:04;97729.72;;;8.58;100.00
56944;BME280;42848;42.524;12.052;2023-01-05T00:47:30;97738.56;;;8.73;100.00
56944;BME280;42848;42.524;12.052;2023-01-05T00:49:56;97737.50;;;8.69;100.00
56944;BME280;42848;42.524;12.052;2023-01-05T00:52:21;97733.84;;;8.50;100.00
56944;BME280;42848;42.524;12.052;2023-01-05T00:54:47;97731.34;;;8.59;100.00
56944;BME280;42848;42.524;12.052;2023-01-05T00:57:13;97726.88;;;8.39;100.00
56944;BME280;42848;42.524;12.052;2023-01-05T00:59:39;97733.31;;;8.48;100.00
56944;BME280;42848;42.524;12.052;2023-01-05T01:02:05;97733.31;;;8.53;100.00
56944;BME280;42848;42.524;12.052;2023-01-05T01:04:32;97732.50;;;8.52;100.00
56944;BME280;42848;42.524;12.052;2023-01-05T01:06:58;97720.38;;;8.40;100.00
56944;BME280;42848;42.524;12.052;2023-01-05T01:09:24;97731.78;;;8.37;100.00
56944;BME280;42848;42.524;12.052;2023-01-05T01:11:51;97724.97;;;8.44;100.00
56944;BME280;42848;42.524;12.052;2023-01-05T01:14:16;97724.09;;;8.54;100.00
56944;BME280;42848;42.524;12.052;2023-01-05T01:16:42;97721.38;;;8.54;100.00
56944;BME280;42848;42.524;12.052;2023-01-05T01:19:13;97731.19;;;8.45;100.00
56944;BME280;42848;42.524;12.052;2023-01-05T01:21:39;97731.13;;;8.55;100.00
56944;BME280;42848;42.524;12.052;2023-01-05T01:24:05;97737.25;;;8.21;100.00
56944;BME280;42848;42.524;12.052;2023-01-05T01:26:31;97741.38;;;8.58;100.00
56944;BME280;42848;42.524;12.052;2023-01-05T01:28:56;97736.13;;;8.27;100.00
56944;BME280;42848;42.524;12.052;2023-01-05T01:31:22;97735.34;;;8.22;100.00
56944;BME280;42848;42.524;12.052;2023-01-05T01:33:48;97734.59;;;8.16;100.00
56944;BME280;42848;42.524;12.052;2023-01-05T01:36:14;97739.94;;;8.26;100.00
56944;BME280;42848;42.524;12.052;2023-01-05T01:38:39;97733.06;;;7.95;100.00
56944;BME280;42848;42.524;12.052;2023-01-05T01:41:05;97735.00;;;7.84;100.00
56944;BME280;42848;42.524;12.052;2023-01-05T01:43:48;97724.88;;;8.10;100.00
56944;BME280;42848;42.524;12.052;2023-01-05T01:46:16;97726.69;;;8.25;100.00
56944;BME280;42848;42.524;12.052;2023-01-05T01:49:03;97724.50;;;8.27;100.00
56944;BME280;42848;42.524;12.052;2023-01-05T01:51:44;97719.72;;;8.14;100.00
56944;BME280;42848;42.524;12.052;2023-01-05T01:54:15;97719.97;;;8.17;100.00
56944;BME280;42848;42.524;12.052;2023-01-05T01:56:49;97715.03;;;8.35;100.00
56944;BME280;42848;42.524;12.052;2023-01-05T01:59:17;97716.41;;;8.27;100.00
56944;BME280;42848;42.524;12.052;2023-01-05T02:01:43;97714.00;;;8.20;100.00
56944;BME280;42848;42.524;12.052;2023-01-05T02:04:09;97711.00;;;8.22;100.00
56944;BME280;42848;42.524;12.052;2023-01-05T02:06:36;97706.44;;;8.17;100.00
56944;BME280;42848;42.524;12.052;2023-01-05T02:09:02;97703.25;;;8.10;100.00
56944;BME280;42848;42.524;12.052;2023-01-05T02:11:32;97710.31;;;8.01;100.00
56944;BME280;42848;42.524;12.052;2023-01-05T02:22:26;97696.97;;;7.65;100.00
56944;BME280;42848;42.524;12.052;2023-01-05T02:25:27;97690.34;;;7.97;100.00
56944;BME280;42848;42.524;12.052;2023-01-05T02:39:15;97662.97;;;8.04;100.00
56944;BME280;42848;42.524;12.052;2023-01-05T02:42:02;97661.56;;;7.67;100.00
56944;BME280;42848;42.524;12.052;2023-01-05T02:44:31;97655.63;;;7.70;100.00
56944;BME280;42848;42.524;12.052;2023-01-05T02:47:05;97654.72;;;7.85;100.00
56944;BME280;42848;42.524;12.052;2023-01-05T02:49:37;97649.19;;;7.61;100.00
56944;BME280;42848;42.524;12.052;2023-01-05T02:52:05;97654.66;;;7.46;100.00
56944;BME280;42848;42.524;12.052;2023-01-05T02:54:56;97644.53;;;7.66;100.00
56944;BME280;42848;42.524;12.052;2023-01-05T02:57:30;97654.50;;;7.76;100.00
56944;BME280;42848;42.524;12.052;2023-01-05T03:00:25;97648.72;;;7.93;100.00
56944;BME280;42848;42.524;12.052;2023-01-05T03:03:01;97650.97;;;7.81;100.00
56944;BME280;42848;42.524;12.052;2023-01-05T03:05:35;97644.81;;;7.70;100.00
56944;BME280;42848;42.524;12.052;2023-01-05T03:08:03;97651.78;;;7.76;100.00
56944;BME280;42848;42.524;12.052;2023-01-05T03:10:41;97647.75;;;7.79;100.00
56944;BME280;42848;42.524;12.052;2023-01-05T03:13:29;97640.84;;;7.47;100.00
56944;BME280;42848;42.524;12.052;2023-01-05T03:16:17;97641.38;;;7.54;100.00
56944;BME280;42848;42.524;12.052;2023-01-05T03:18:45;97640.38;;;7.30;100.00
56944;BME280;42848;42.524;12.052;2023-01-05T03:21:30;97647.81;;;7.58;100.00
56944;BME280;42848;42.524;12.052;2023-01-05T03:24:15;97644.09;;;7.49;100.00
56944;BME280;42848;42.524;12.052;2023-01-05T03:27:00;97639.25;;;7.46;100.00
56944;BME280;42848;42.524;12.052;2023-01-05T03:29:45;97634.91;;;7.50;100.00
56944;BME280;42848;42.524;12.052;2023-01-05T03:32:30;97633.25;;;7.59;100.00
56944;BME280;42848;42.524;12.052;2023-01-05T03:35:19;97628.59;;;7.70;100.00
56944;BME280;42848;42.524;12.052;2023-01-05T03:40:51;97627.16;;;7.83;100.00
56944;BME280;42848;42.524;12.052;2023-01-05T03:43:19;97624.00;;;7.70;100.00
56944;BME280;42848;42.524;12.052;2023-01-05T03:45:51;97624.34;;;7.54;100.00
56944;BME280;42848;42.524;12.052;2023-01-05T03:48:17;97627.00;;;7.64;100.00
56944;BME280;42848;42.524;12.052;2023-01-05T03:50:45;97628.59;;;7.70;100.00
56944;BME280;42848;42.524;12.052;2023-01-05T03:53:11;97625.56;;;7.82;100.00
56944;BME280;42848;42.524;12.052;2023-01-05T03:55:36;97614.22;;;7.75;100.00
56944;BME280;42848;42.524;12.052;2023-01-05T03:58:02;97618.59;;;7.70;100.00
56944;BME280;42848;42.524;12.052;2023-01-05T04:00:28;97613.06;;;7.91;100.00
56944;BME280;42848;42.524;12.052;2023-01-05T04:02:53;97616.34;;;7.83;100.00
56944;BME280;42848;42.524;12.052;2023-01-05T04:05:19;97611.00;;;7.73;100.00
56944;BME280;42848;42.524;12.052;2023-01-05T04:07:45;97609.63;;;7.80;100.00
56944;BME280;42848;42.524;12.052;2023-01-05T04:10:11;97605.09;;;7.70;100.00
56944;BME280;42848;42.524;12.052;2023-01-05T04:12:36;97598.59;;;7.66;100.00
56944;BME280;42848;42.524;12.052;2023-01-05T04:15:03;97604.56;;;7.68;100.00
56944;BME280;42848;42.524;12.052;2023-01-05T04:17:29;97601.00;;;7.73;100.00
56944;BME280;42848;42.524;12.052;2023-01-05T04:19:55;97596.72;;;7.67;100.00
56944;BME280;42848;42.524;12.052;2023-01-05T04:22:21;97589.38;;;7.73;100.00
56944;BME280;42848;42.524;12.052;2023-01-05T04:24:46;97588.81;;;7.76;100.00
56944;BME280;42848;42.524;12.052;2023-01-05T04:27:12;97586.41;;;7.74;100.00
56944;BME280;42848;42.524;12.052;2023-01-05T04:29:38;97598.47;;;7.43;100.00
56944;BME280;42848;42.524;12.052;2023-01-05T04:32:04;97596.53;;;7.53;100.00
56944;BME280;42848;42.524;12.052;2023-01-05T04:34:29;97590.78;;;7.65;100.00
56944;BME280;42848;42.524;12.052;2023-01-05T04:36:55;97591.00;;;7.74;100.00
56944;BME280;42848;42.524;12.052;2023-01-05T04:39:21;97585.72;;;7.53;100.00
56944;BME280;42848;42.524;12.052;2023-01-05T04:41:47;97588.81;;;7.76;100.00
56944;BME280;42848;42.524;12.052;2023-01-05T04:44:13;97598.53;;;7.82;100.00
56944;BME280;42848;42.524;12.052;2023-01-05T04:46:39;97591.59;;;7.65;100.00
56944;BME280;42848;42.524;12.052;2023-01-05T04:49:05;97596.91;;;7.81;100.00
56944;BME280;42848;42.524;12.052;2023-01-05T04:51:30;97592.59;;;7.75;100.00
56944;BME280;42848;42.524;12.052;2023-01-05T04:53:56;97598.44;;;7.92;100.00
56944;BME280;42848;42.524;12.052;2023-01-05T04:56:22;97598.44;;;7.92;100.00
56944;BME280;42848;42.524;12.052;2023-01-05T04:58:47;97599.56;;;7.86;100.00
56944;BME280;42848;42.524;12.052;2023-01-05T05:01:13;97597.50;;;7.67;100.00
56944;BME280;42848;42.524;12.052;2023-01-05T05:03:39;97592.31;;;7.81;100.00
56944;BME280;42848;42.524;12.052;2023-01-05T05:06:05;97602.44;;;8.05;100.00
56944;BME280;42848;42.524;12.052;2023-01-05T05:08:31;97600.75;;;8.14;100.00
56944;BME280;42848;42.524;12.052;2023-01-05T05:10:57;97602.81;;;7.88;100.00
56944;BME280;42848;42.524;12.052;2023-01-05T05:13:24;97601.66;;;7.94;100.00
56944;BME280;42848;42.524;12.052;2023-01-05T05:15:49;97606.41;;;7.73;100.00
56944;BME280;42848;42.524;12.052;2023-01-05T05:18:15;97618.59;;;7.70;100.00
56944;BME280;42848;42.524;12.052;2023-01-05T05:20:43;97616.13;;;7.79;100.00
56944;BME280;42848;42.524;12.052;2023-01-05T05:23:12;97618.25;;;7.82;100.00
56944;BME280;42848;42.524;12.052;2023-01-05T05:25:38;97623.69;;;8.16;100.00
56944;BME280;42848;42.524;12.052;2023-01-05T05:28:03;97625.25;;;7.83;100.00
56944;BME280;42848;42.524;12.052;2023-01-05T05:30:29;97623.16;;;7.75;100.00
56944;BME280;42848;42.524;12.052;2023-01-05T05:32:55;97607.88;;;7.94;100.00
56944;BME280;42848;42.524;12.052;2023-01-05T05:35:21;97617.78;;;8.14;100.00
56944;BME280;42848;42.524;12.052;2023-01-05T05:37:46;97624.28;;;7.69;100.00
56944;BME280;42848;42.524;12.052;2023-01-05T05:40:12;97630.38;;;7.85;100.00
56944;BME280;42848;42.524;12.052;2023-01-05T05:42:38;97630.72;;;7.78;100.00
56944;BME280;42848;42.524;12.052;2023-01-05T05:45:04;97619.84;;;7.88;100.00
56944;BME280;42848;42.524;12.052;2023-01-05T05:47:30;97619.50;;;7.95;100.00
56944;BME280;42848;42.524;12.052;2023-01-05T05:49:55;97609.78;;;7.94;100.00
56944;BME280;42848;42.524;12.052;2023-01-05T05:52:21;97617.97;;;7.84;100.00
56944;BME280;42848;42.524;12.052;2023-01-05T05:54:47;97619.47;;;8.00;100.00
56944;BME280;42848;42.524;12.052;2023-01-05T05:57:13;97607.44;;;7.77;100.00
56944;BME280;42848;42.524;12.052;2023-01-05T05:59:39;97617.16;;;7.83;100.00
56944;BME280;42848;42.524;12.052;2023-01-05T06:02:05;97614.75;;;7.82;100.00
56944;BME280;42848;42.524;12.052;2023-01-05T06:04:30;97613.88;;;7.91;100.00
56944;BME280;42848;42.524;12.052;2023-01-05T06:06:56;97612.53;;;7.89;100.00
56944;BME280;42848;42.524;12.052;2023-01-05T06:09:22;97609.84;;;7.89;100.00
56944;BME280;42848;42.524;12.052;2023-01-05T06:11:49;97608.22;;;7.88;100.00
56944;BME280;42848;42.524;12.052;2023-01-05T06:14:14;97604.97;;;7.86;100.00
56944;BME280;42848;42.524;12.052;2023-01-05T06:16:40;97613.72;;;7.67;100.00
56944;BME280;42848;42.524;12.052;2023-01-05T06:19:07;97611.03;;;7.67;100.00
56944;BME280;42848;42.524;12.052;2023-01-05T06:21:33;97616.34;;;7.88;100.00
56944;BME280;42848;42.524;12.052;2023-01-05T06:23:59;97609.63;;;7.75;100.00
56944;BME280;42848;42.524;12.052;2023-01-05T06:26:25;97609.25;;;7.92;100.00
56944;BME280;42848;42.524;12.052;2023-01-05T06:28:50;97603.34;;;7.85;100.00
56944;BME280;42848;42.524;12.052;2023-01-05T06:31:16;97608.94;;;7.54;100.00
56944;BME280;42848;42.524;12.052;2023-01-05T06:33:42;97596.47;;;7.63;100.00
56944;BME280;42848;42.524;12.052;2023-01-05T06:36:07;97594.06;;;7.62;100.00
56944;BME280;42848;42.524;12.052;2023-01-05T06:38:33;97596.97;;;7.70;100.00
56944;BME280;42848;42.524;12.052;2023-01-05T06:40:59;97594.16;;;7.86;100.00
56944;BME280;42848;42.524;12.052;2023-01-05T06:43:25;97592.53;;;7.85;100.00
56944;BME280;42848;42.524;12.052;2023-01-05T06:45:50;97587.72;;;7.77;100.00
56944;BME280;42848;42.524;12.052;2023-01-05T06:48:17;97584.22;;;7.76;100.00
56944;BME280;42848;42.524;12.052;2023-01-05T06:50:43;97584.28;;;7.66;100.00
56944;BME280;42848;42.524;12.052;2023-01-05T06:53:08;97591.44;;;7.86;100.00
56944;BME280;42848;42.524;12.052;2023-01-05T06:55:34;97589.00;;;7.89;100.00
56944;BME280;42848;42.524;12.052;2023-01-05T06:58:00;97590.63;;;7.90;100.00
56944;BME280;42848;42.524;12.052;2023-01-05T07:00:26;97586.81;;;7.91;100.00
56944;BME280;42848;42.524;12.052;2023-01-05T07:02:52;97589.31;;;7.83;100.00
56944;BME280;42848;42.524;12.052;2023-01-05T07:05:17;97584.66;;;7.93;100.00
56944;BME280;42848;42.524;12.052;2023-01-05T07:07:43;97584.09;;;7.96;100.00
56944;BME280;42848;42.524;12.052;2023-01-05T07:10:09;97589.97;;;8.04;100.00
56944;BME280;42848;42.524;12.052;2023-01-05T07:12:35;97580.59;;;7.96;100.00
56944;BME280;42848;42.524;12.052;2023-01-05T07:15:01;97587.69;;;7.87;100.00
56944;BME280;42848;42.524;12.052;2023-01-05T07:17:26;97588.75;;;7.86;100.00
56944;BME280;42848;42.524;12.052;2023-01-05T07:19:52;97588.22;;;7.84;100.00
56944;BME280;42848;42.524;12.052;2023-01-05T07:22:18;97584.91;;;7.97;100.00
56944;BME280;42848;42.524;12.052;2023-01-05T07:24:44;97586.03;;;7.91;100.00
56944;BME280;42848;42.524;12.052;2023-01-05T07:27:09;97587.63;;;7.92;100.00
56944;BME280;42848;42.524;12.052;2023-01-05T07:29:35;97591.13;;;7.97;100.00
56944;BME280;42848;42.524;12.052;2023-01-05T07:32:01;97584.78;;;8.12;100.00
56944;BME280;42848;42.524;12.052;2023-01-05T07:34:26;97587.97;;;8.19;100.00
56944;BME280;42848;42.524;12.052;2023-01-05T07:36:52;97596.16;;;8.09;100.00
56944;BME280;42848;42.524;12.052;2023-01-05T07:39:18;97588.63;;;8.06;100.00
56944;BME280;42848;42.524;12.052;2023-01-05T07:41:44;97588.69;;;7.96;100.00
56944;BME280;42848;42.524;12.052;2023-01-05T07:44:09;97596.25;;;7.99;100.00
56944;BME280;42848;42.524;12.052;2023-01-05T07:46:36;97594.66;;;7.93;100.00
56944;BME280;42848;42.524;12.052;2023-01-05T07:49:01;97599.06;;;8.18;100.00
56944;BME280;42848;42.524;12.052;2023-01-05T07:51:28;97588.53;;;8.16;100.00
56944;BME280;42848;42.524;12.052;2023-01-05T07:53:54;97599.31;;;8.21;100.00
56944;BME280;42848;42.524;12.052;2023-01-05T07:56:20;97602.75;;;8.32;100.00
56944;BME280;42848;42.524;12.052;2023-01-05T07:58:46;97593.19;;;8.45;100.00
56944;BME280;42848;42.524;12.052;2023-01-05T08:01:13;97589.06;;;8.52;100.00
56944;BME280;42848;42.524;12.052;2023-01-05T08:03:39;97589.81;;;8.58;100.00
56944;BME280;42848;42.524;12.052;2023-01-05T08:06:12;97597.91;;;8.63;100.00
56944;BME280;42848;42.524;12.052;2023-01-05T08:08:38;97594.78;;;8.75;100.00
56944;BME280;42848;42.524;12.052;2023-01-05T08:11:05;97591.69;;;8.63;100.00
56944;BME280;42848;42.524;12.052;2023-01-05T08:13:31;97587.66;;;8.60;100.00
56944;BME280;42848;42.524;12.052;2023-01-05T08:16:16;97592.72;;;8.67;100.00
56944;BME280;42848;42.524;12.052;2023-01-05T08:18:42;97590.78;;;8.72;100.00
56944;BME280;42848;42.524;12.052;2023-01-05T08:21:08;97598.31;;;8.75;100.00
56944;BME280;42848;42.524;12.052;2023-01-05T08:23:34;97597.22;;;8.76;100.00
56944;BME280;42848;42.524;12.052;2023-01-05T08:26:06;97595.59;;;8.75;100.00
56944;BME280;42848;42.524;12.052;2023-01-05T08:28:35;97599.38;;;8.79;100.00
56944;BME280;42848;42.524;12.052;2023-01-05T08:31:06;97601.38;;;8.93;100.00
56944;BME280;42848;42.524;12.052;2023-01-05T08:33:33;97597.81;;;8.97;100.00
56944;BME280;42848;42.524;12.052;2023-01-05T08:35:59;97590.72;;;9.01;100.00
56944;BME280;42848;42.524;12.052;2023-01-05T08:38:25;97601.25;;;9.03;100.00
56944;BME280;42848;42.524;12.052;2023-01-05T08:40:51;97593.75;;;8.95;100.00
56944;BME280;42848;42.524;12.052;2023-01-05T08:43:17;97598.97;;;9.15;100.00
56944;BME280;42848;42.524;12.052;2023-01-05T08:45:47;97596.13;;;9.01;100.00
56944;BME280;42848;42.524;12.052;2023-01-05T08:48:14;97602.75;;;8.90;100.00
56944;BME280;42848;42.524;12.052;2023-01-05T08:50:40;97597.41;;;9.09;100.00
56944;BME280;42848;42.524;12.052;2023-01-05T08:53:06;97593.56;;;9.15;100.00
56944;BME280;42848;42.524;12.052;2023-01-05T08:55:31;97600.00;;;9.19;100.00
56944;BME280;42848;42.524;12.052;2023-01-05T08:57:57;97595.84;;;9.27;100.00
56944;BME280;42848;42.524;12.052;2023-01-05T09:00:23;97593.56;;;9.15;100.00
56944;BME280;42848;42.524;12.052;2023-01-05T09:02:49;97601.22;;;9.08;100.00
56944;BME280;42848;42.524;12.052;2023-01-05T09:05:15;97610.25;;;9.22;100.00
56944;BME280;42848;42.524;12.052;2023-01-05T09:07:41;97605.28;;;9.29;100.00
56944;BME280;42848;42.524;12.052;2023-01-05T09:10:07;97604.44;;;9.34;100.00
56944;BME280;42848;42.524;12.052;2023-01-05T09:12:34;97609.31;;;9.32;100.00
56944;BME280;42848;42.524;12.052;2023-01-05T09:15:00;97607.56;;;9.41;100.00
56944;BME280;42848;42.524;12.052;2023-01-05T09:17:26;97603.41;;;9.49;100.00
56944;BME280;42848;42.524;12.052;2023-01-05T09:19:52;97607.69;;;9.55;100.00
56944;BME280;42848;42.524;12.052;2023-01-05T09:22:17;97609.34;;;9.51;100.00
56944;BME280;42848;42.524;12.052;2023-01-05T09:24:43;97612.31;;;9.54;100.00
56944;BME280;42848;42.524;12.052;2023-01-05T09:27:09;97606.53;;;9.61;100.00
56944;BME280;42848;42.524;12.052;2023-01-05T09:29:35;97621.44;;;9.58;100.00
56944;BME280;42848;42.524;12.052;2023-01-05T09:32:00;97617.88;;;9.63;100.00
56944;BME280;42848;42.524;12.052;2023-01-05T09:34:26;97610.41;;;9.74;100.00
56944;BME280;42848;42.524;12.052;2023-01-05T09:36:52;97624.41;;;9.62;100.00
56944;BME280;42848;42.524;12.052;2023-01-05T09:39:17;97613.41;;;9.72;100.00
56944;BME280;42848;42.524;12.052;2023-01-05T09:41:55;97620.91;;;9.80;100.00
56944;BME280;42848;42.524;12.052;2023-01-05T09:44:44;97619.28;;;9.79;100.00
56944;BME280;42848;42.524;12.052;2023-01-05T09:48:03;97618.09;;;9.85;100.00
56944;BME280;42848;42.524;12.052;2023-01-05T09:50:26;97622.50;;;9.81;100.00
56944;BME280;42848;42.524;12.052;2023-01-05T09:52:56;97617.66;;;9.78;100.00
56944;BME280;42848;42.524;12.052;2023-01-05T09:55:26;97614.81;;;9.88;100.00
56944;BME280;42848;42.524;12.052;2023-01-05T09:58:11;97613.28;;;9.82;100.00
56944;BME280;42848;42.524;12.052;2023-01-05T10:00:39;97618.09;;;9.85;100.00
56944;BME280;42848;42.524;12.052;2023-01-05T10:03:13;97613.88;;;9.98;100.00
56944;BME280;42848;42.524;12.052;2023-01-05T10:05:43;97612.13;;;9.88;100.00
56944;BME280;42848;42.524;12.052;2023-01-05T10:08:48;97617.16;;;9.95;100.00
56944;BME280;42848;42.524;12.052;2023-01-05T10:11:23;97604.19;;;9.92;100.00
56944;BME280;42848;42.524;12.052;2023-01-05T10:14:15;97606.09;;;9.91;100.00
56944;BME280;42848;42.524;12.052;2023-01-05T10:16:43;97607.25;;;9.85;100.00
56944;BME280;42848;42.524;12.052;2023-01-05T10:19:14;97618.19;;;9.80;100.00
56944;BME280;42848;42.524;12.052;2023-01-05T10:22:02;97615.84;;;9.74;100.00
56944;BME280;42848;42.524;12.052;2023-01-05T10:24:56;97606.94;;;9.68;100.00
56944;BME280;42848;42.524;12.052;2023-01-05T10:27:40;97599.56;;;9.92;100.00
56944;BME280;42848;42.524;12.052;2023-01-05T10:30:24;97602.56;;;10.10;100.00
56944;BME280;42848;42.524;12.052;2023-01-05T10:32:59;97595.53;;;10.09;100.00
56944;BME280;42848;42.524;12.052;2023-01-05T10:46:57;97582.66;;;10.14;100.00
56944;BME280;42848;42.524;12.052;2023-01-05T10:49:27;97577.47;;;10.18;100.00
56944;BME280;42848;42.524;12.052;2023-01-05T10:51:56;97565.97;;;10.26;100.00
56944;BME280;42848;42.524;12.052;2023-01-05T10:54:38;97559.22;;;10.23;100.00
56944;BME280;42848;42.524;12.052;2023-01-05T11:02:27;97556.31;;;10.52;100.00
56944;BME280;42848;42.524;12.052;2023-01-05T11:04:57;97551.25;;;10.46;100.00
56944;BME280;42848;42.524;12.052;2023-01-05T11:07:23;97546.91;;;10.12;100.00
56944;BME280;42848;42.524;12.052;2023-01-05T11:09:49;97547.66;;;9.99;100.00
56944;BME280;42848;42.524;12.052;2023-01-05T11:12:20;97549.28;;;10.00;100.00
56944;BME280;42848;42.524;12.052;2023-01-05T11:14:50;97545.94;;;10.22;100.00
56944;BME280;42848;42.524;12.052;2023-01-05T11:17:20;97541.28;;;10.09;100.00
56944;BME280;42848;42.524;12.052;2023-01-05T11:19:52;97546.09;;;10.12;100.00
56944;BME280;42848;42.524;12.052;2023-01-05T11:25:31;97546.13;;;9.93;100.00
56944;BME280;42848;42.524;12.052;2023-01-05T11:28:14;97538.19;;;9.96;100.00
56944;BME280;42848;42.524;12.052;2023-01-05T11:31:01;97539.94;;;10.25;100.00
56944;BME280;42848;42.524;12.052;2023-01-05T11:33:30;97523.25;;;10.32;100.00
56944;BME280;42848;42.524;12.052;2023-01-05T11:36:00;97523.19;;;10.37;100.00
56944;BME280;42848;42.524;12.052;2023-01-05T11:38:28;97511.03;;;10.34;100.00
56944;BME280;42848;42.524;12.052;2023-01-05T11:40:58;97517.56;;;10.47;100.00
56944;BME280;42848;42.524;12.052;2023-01-05T11:43:25;97520.91;;;10.58;100.00
56944;BME280;42848;42.524;12.052;2023-01-05T11:45:58;97518.72;;;10.73;100.00
56944;BME280;42848;42.524;12.052;2023-01-05T11:48:28;97507.22;;;10.76;100.00
56944;BME280;42848;42.524;12.052;2023-01-05T11:50:57;97511.44;;;10.55;100.00
56944;BME280;42848;42.524;12.052;2023-01-05T11:56:01;97508.03;;;10.77;100.00
56944;BME280;42848;42.524;12.052;2023-01-05T11:58:33;97512.47;;;10.73;100.00
56944;BME280;42848;42.524;12.052;2023-01-05T12:03:59;97512.19;;;10.61;100.00
56944;BME280;42848;42.524;12.052;2023-01-05T12:09:33;97514.09;;;10.74;100.00
56944;BME280;42848;42.524;12.052;2023-01-05T12:37:29;97506.81;;;10.09;100.00
56944;BME280;42848;42.524;12.052;2023-01-05T12:43:08;97495.94;;;10.42;100.00
56944;BME280;42848;42.524;12.052;2023-01-05T12:48:33;97484.28;;;10.69;100.00
56944;BME280;42848;42.524;12.052;2023-01-05T12:53:58;97485.72;;;10.80;100.00
56944;BME280;42848;42.524;12.052;2023-01-05T12:56:49;97473.25;;;10.79;100.00
56944;BME280;42848;42.524;12.052;2023-01-05T12:59:31;97472.25;;;10.75;100.00
56944;BME280;42848;42.524;12.052;2023-01-05T13:13:04;97459.94;;;11.05;100.00
56944;BME280;42848;42.524;12.052;2023-01-05T13:15:39;97458.13;;;11.00;100.00
56944;BME280;42848;42.524;12.052;2023-01-05T13:18:12;97459.88;;;10.82;100.00
56944;BME280;42848;42.524;12.052;2023-01-05T13:20:44;97450.50;;;10.75;100.00
56944;BME280;42848;42.524;12.052;2023-01-05T13:23:18;97452.72;;;10.73;100.00
56944;BME280;42848;42.524;12.052;2023-01-05T13:25:58;97453.72;;;10.77;100.00
56944;BME280;42848;42.524;12.052;2023-01-05T13:28:26;97452.53;;;10.83;100.00
56944;BME280;42848;42.524;12.052;2023-01-05T13:47:27;97429.59;;;10.89;100.00
56944;BME280;42848;42.524;12.052;2023-01-05T13:55:24;97423.34;;;10.89;100.00
56944;BME280;42848;42.524;12.052;2023-01-05T13:57:52;97422.13;;;10.95;100.00
56944;BME280;42848;42.524;12.052;2023-01-05T14:00:29;97423.75;;;10.82;100.00
56944;BME280;42848;42.524;12.052;2023-01-05T14:05:31;97420.63;;;10.75;100.00
56944;BME280;42848;42.524;12.052;2023-01-05T14:08:00;97423.50;;;11.06;100.00
56944;BME280;42848;42.524;12.052;2023-01-05T14:10:31;97424.72;;;11.00;100.00
56944;BME280;42848;42.524;12.052;2023-01-05T14:12:59;97419.47;;;11.03;100.00
56944;BME280;42848;42.524;12.052;2023-01-05T14:15:40;97419.88;;;11.10;100.00
56944;BME280;42848;42.524;12.052;2023-01-05T14:24:29;97418.81;;;10.84;100.00
56944;BME280;42848;42.524;12.052;2023-01-05T14:27:10;97405.31;;;11.06;100.00
56944;BME280;42848;42.524;12.052;2023-01-05T14:34:45;97413.56;;;11.01;100.00
56944;BME280;42848;42.524;12.052;2023-01-05T14:37:40;97410.06;;;10.87;100.00
56944;BME280;42848;42.524;12.052;2023-01-05T14:40:26;97406.31;;;10.97;100.00
56944;BME280;42848;42.524;12.052;2023-01-05T14:42:53;97407.41;;;11.09;100.00
56944;BME280;42848;42.524;12.052;2023-01-05T14:45:26;97403.00;;;10.86;100.00
56944;BME280;42848;42.524;12.052;2023-01-05T14:47:57;97410.06;;;10.87;100.00
56944;BME280;42848;42.524;12.052;2023-01-05T14:50:34;97402.00;;;10.96;100.00
56944;BME280;42848;42.524;12.052;2023-01-05T15:03:56;97408.59;;;11.17;100.00
56944;BME280;42848;42.524;12.052;2023-01-05T15:09:21;97408.84;;;10.93;100.00
56944;BME280;42848;42.524;12.052;2023-01-05T15:15:13;97406.63;;;10.95;100.00
56944;BME280;42848;42.524;12.052;2023-01-05T15:18:06;97411.47;;;10.98;100.00
56944;BME280;42848;42.524;12.052;2023-01-05T15:21:12;97413.28;;;10.89;100.00
56944;BME280;42848;42.524;12.052;2023-01-05T15:29:58;97412.06;;;10.95;100.00
56944;BME280;42848;42.524;12.052;2023-01-05T15:32:29;97409.34;;;10.95;100.00
56944;BME280;42848;42.524;12.052;2023-01-05T15:37:36;97414.72;;;10.73;100.00
56944;BME280;42848;42.524;12.052;2023-01-05T15:40:12;97409.06;;;10.83;100.00
56944;BME280;42848;42.524;12.052;2023-01-05T15:42:55;97414.09;;;10.90;100.00